createdAt,value
2019-03-22T00:00:40.918Z,26.60
2019-03-22T00:03:10.294Z,26.82
2019-03-22T00:05:39.670Z,27.70
2019-03-22T00:08:09.299Z,26.70
2019-03-22T00:10:39.760Z,27.70
2019-03-22T00:13:09.169Z,27.42
2019-03-22T00:15:38.549Z,26.17
2019-03-22T00:18:07.927Z,24.75
2019-03-22T00:20:37.299Z,25.45
2019-03-22T00:23:06.754Z,27.10
2019-03-22T00:25:36.130Z,25.95
2019-03-22T00:28:05.518Z,25.15
2019-03-22T00:30:34.910Z,25.55
2019-03-22T00:33:04.305Z,25.62
2019-03-22T00:35:33.669Z,25.17
2019-03-22T00:38:03.059Z,26.52
2019-03-22T00:40:32.436Z,24.50
2019-03-22T00:43:01.803Z,24.43
2019-03-22T00:45:31.494Z,26.30
2019-03-22T00:48:00.864Z,26.02
2019-03-22T00:50:30.260Z,26.50
2019-03-22T00:52:59.656Z,26.30
2019-03-22T00:55:29.031Z,27.62
2019-03-22T00:57:58.399Z,26.30
2019-03-22T01:00:27.792Z,25.68
2019-03-22T01:02:57.228Z,26.65
2019-03-22T01:05:26.611Z,27.43
2019-03-22T01:07:56.456Z,26.20
2019-03-22T01:10:25.825Z,27.58
2019-03-22T01:12:56.253Z,26.10
2019-03-22T01:15:25.678Z,27.00
2019-03-22T01:17:55.058Z,26.15
2019-03-22T01:20:24.439Z,25.37
2019-03-22T01:22:54.329Z,27.45
2019-03-22T01:25:23.702Z,26.10
2019-03-22T01:27:53.085Z,25.68
2019-03-22T01:30:22.491Z,27.07
2019-03-22T01:32:51.867Z,25.35
2019-03-22T01:35:21.251Z,26.30
2019-03-22T01:37:50.636Z,26.57
2019-03-22T01:40:20.002Z,26.57
2019-03-22T01:42:49.387Z,25.88
2019-03-22T01:45:18.819Z,26.07
2019-03-22T01:47:48.138Z,26.15
2019-03-22T01:50:19.049Z,26.73
2019-03-22T01:52:48.890Z,25.90
2019-03-22T01:55:18.264Z,26.07
2019-03-22T01:57:53.750Z,24.43
2019-03-22T02:00:19.233Z,25.50
2019-03-22T02:02:48.614Z,28.27
2019-03-22T02:05:18.553Z,27.40
2019-03-22T02:07:47.951Z,27.55
2019-03-22T02:10:17.397Z,28.27
2019-03-22T02:12:46.785Z,28.23
2019-03-22T02:15:17.530Z,29.00
2019-03-22T02:17:47.717Z,30.85
2019-03-22T02:20:19.053Z,31.87
2019-03-22T02:22:48.420Z,29.82
2019-03-22T02:25:17.879Z,28.90
2019-03-22T02:27:47.422Z,27.62
2019-03-22T02:30:18.011Z,28.30
2019-03-22T02:32:47.384Z,27.05
2019-03-22T02:35:28.341Z,27.47
2019-03-22T02:37:48.504Z,27.48
2019-03-22T02:40:17.886Z,28.47
2019-03-22T02:42:47.273Z,28.40
2019-03-22T02:45:16.888Z,30.53
2019-03-22T02:47:46.267Z,37.25
2019-03-22T02:50:19.214Z,40.03
2019-03-22T02:52:47.070Z,41.90
2019-03-22T02:55:16.457Z,43.30
2019-03-22T02:57:46.130Z,44.60
2019-03-22T03:00:17.923Z,40.87
2019-03-22T03:02:47.293Z,42.58
2019-03-22T03:05:17.020Z,43.70
2019-03-22T03:07:46.397Z,43.48
2019-03-22T03:10:17.079Z,40.47
2019-03-22T03:12:46.703Z,41.73
2019-03-22T03:15:19.788Z,38.30
2019-03-22T03:17:50.144Z,39.95
2019-03-22T03:20:20.572Z,40.37
2019-03-22T03:22:49.952Z,43.80
2019-03-22T03:25:19.413Z,44.90
2019-03-22T03:27:48.852Z,47.85
2019-03-22T03:30:20.937Z,49.10
2019-03-22T03:32:50.330Z,45.20
2019-03-22T03:35:19.861Z,38.20
2019-03-22T03:37:49.225Z,39.35
2019-03-22T03:40:18.779Z,40.97
2019-03-22T03:42:48.359Z,40.28
2019-03-22T03:45:33.342Z,37.87
2019-03-22T03:48:05.639Z,36.30
2019-03-22T03:50:35.179Z,33.55
2019-03-22T03:53:04.986Z,34.65
2019-03-22T03:55:34.384Z,33.23
2019-03-22T03:58:03.988Z,31.87
2019-03-22T04:00:33.440Z,32.70
2019-03-22T04:03:03.159Z,31.52
2019-03-22T04:05:32.547Z,30.45
2019-03-22T04:08:01.995Z,29.77
2019-03-22T04:10:31.391Z,30.40
2019-03-22T04:13:00.767Z,31.05
2019-03-22T04:15:30.147Z,31.45
2019-03-22T04:17:59.536Z,29.65
2019-03-22T04:20:29.903Z,31.05
2019-03-22T04:22:59.289Z,31.93
2019-03-22T04:25:28.986Z,32.05
2019-03-22T04:27:58.353Z,32.78
2019-03-22T04:30:27.733Z,31.93
2019-03-22T04:32:57.173Z,31.15
2019-03-22T04:35:26.626Z,32.63
2019-03-22T04:37:55.991Z,32.38
2019-03-22T04:40:27.389Z,32.20
2019-03-22T04:42:56.910Z,32.33
2019-03-22T04:45:29.992Z,30.97
2019-03-22T04:48:04.569Z,30.77
2019-03-22T04:50:38.554Z,31.40
2019-03-22T04:53:12.784Z,31.48
2019-03-22T04:55:45.974Z,30.88
2019-03-22T04:58:17.120Z,33.00
2019-03-22T05:00:47.920Z,31.95
2019-03-22T05:03:19.513Z,31.15
2019-03-22T05:05:51.699Z,32.63
2019-03-22T05:08:25.887Z,32.40
2019-03-22T05:10:57.989Z,33.02
2019-03-22T05:13:29.920Z,33.80
2019-03-22T05:15:59.481Z,33.73
2019-03-22T05:18:31.777Z,31.73
2019-03-22T05:21:01.316Z,35.50
2019-03-22T05:23:32.451Z,33.95
2019-03-22T05:26:04.124Z,33.00
2019-03-22T05:28:34.140Z,32.28
2019-03-22T05:31:22.249Z,33.23
2019-03-22T05:33:51.695Z,34.35
2019-03-22T05:36:21.611Z,33.92
2019-03-22T05:38:51.459Z,33.38
2019-03-22T05:41:20.845Z,33.85
2019-03-22T05:43:50.459Z,33.45
2019-03-22T05:46:19.851Z,35.35
2019-03-22T05:48:49.226Z,32.75
2019-03-22T05:51:18.608Z,31.37
2019-03-22T05:53:48.032Z,31.90
2019-03-22T05:56:17.422Z,29.92
2019-03-22T05:58:46.802Z,32.08
2019-03-22T06:01:16.472Z,30.85
2019-03-22T06:03:45.859Z,32.75
2019-03-22T06:06:15.243Z,33.13
2019-03-22T06:08:44.627Z,33.28
2019-03-22T06:11:14.014Z,32.67
2019-03-22T06:13:44.488Z,32.35
2019-03-22T06:16:13.963Z,31.70
2019-03-22T06:18:43.335Z,30.85
2019-03-22T06:21:12.720Z,30.50
2019-03-22T06:23:42.338Z,32.45
2019-03-22T06:26:12.535Z,30.48
2019-03-22T06:28:41.905Z,31.15
2019-03-22T06:31:11.297Z,30.23
2019-03-22T06:33:40.664Z,31.85
2019-03-22T06:36:10.044Z,31.68
2019-03-22T06:38:39.545Z,30.68
2019-03-22T06:41:08.932Z,29.70
2019-03-22T06:43:38.387Z,29.85
2019-03-22T06:46:07.989Z,31.82
2019-03-22T06:48:37.390Z,30.27
2019-03-22T06:51:06.773Z,31.42
2019-03-22T06:53:36.171Z,31.40
2019-03-22T06:56:05.625Z,30.95
2019-03-22T06:58:35.003Z,30.20
2019-03-22T07:01:04.411Z,30.52
2019-03-22T07:03:33.820Z,31.15
2019-03-22T07:06:03.195Z,30.00
2019-03-22T07:08:32.882Z,28.55
2019-03-22T07:11:02.297Z,31.77
2019-03-22T07:13:31.637Z,27.75
2019-03-22T07:16:01.026Z,25.80
2019-03-22T07:18:30.594Z,26.75
2019-03-22T07:20:59.965Z,28.45
2019-03-22T07:23:29.432Z,28.02
2019-03-22T07:25:58.819Z,27.10
2019-03-22T07:28:29.070Z,26.25
2019-03-22T07:30:58.755Z,26.95
2019-03-22T07:33:28.128Z,25.68
2019-03-22T07:35:57.506Z,25.75
2019-03-22T07:38:26.890Z,24.95
2019-03-22T07:40:56.274Z,26.70
2019-03-22T07:43:25.638Z,27.10
2019-03-22T07:45:55.046Z,26.15
2019-03-22T07:48:24.426Z,25.35
2019-03-22T07:50:53.806Z,25.72
2019-03-22T07:53:23.493Z,27.48
2019-03-22T07:55:52.874Z,25.70
2019-03-22T07:58:22.511Z,31.27
2019-03-22T08:00:51.898Z,29.02
2019-03-22T08:03:21.299Z,26.93
2019-03-22T08:05:51.640Z,26.30
2019-03-22T08:08:21.147Z,25.92
2019-03-22T08:10:50.545Z,26.65
2019-03-22T08:13:20.006Z,24.85
2019-03-22T08:15:49.462Z,26.37
2019-03-22T08:18:18.820Z,28.17
2019-03-22T08:20:48.203Z,27.33
2019-03-22T08:23:23.265Z,26.73
2019-03-22T08:25:52.720Z,26.95
2019-03-22T08:28:22.077Z,31.35
2019-03-22T08:30:53.084Z,30.90
2019-03-22T08:33:22.466Z,28.25
2019-03-22T08:35:51.903Z,29.85
2019-03-22T08:38:21.399Z,27.67
2019-03-22T08:40:50.802Z,29.90
2019-03-22T08:43:20.185Z,29.50
2019-03-22T08:45:49.666Z,28.83
2019-03-22T08:48:19.026Z,27.50
2019-03-22T08:50:48.502Z,27.17
2019-03-22T08:53:17.946Z,29.57
2019-03-22T08:55:47.410Z,28.62
2019-03-22T08:58:18.587Z,28.35
2019-03-22T09:00:57.213Z,27.93
2019-03-22T09:03:19.047Z,28.00
2019-03-22T09:05:48.457Z,26.73
2019-03-22T09:08:17.876Z,26.65
2019-03-22T09:10:47.231Z,27.17
2019-03-22T09:13:16.617Z,26.05
2019-03-22T09:15:46.337Z,26.07
2019-03-22T09:18:15.859Z,26.55
2019-03-22T09:20:45.324Z,25.20
2019-03-22T09:23:14.742Z,25.77
2019-03-22T09:25:44.130Z,27.32
2019-03-22T09:28:13.551Z,26.05
2019-03-22T09:30:42.940Z,27.67
2019-03-22T09:33:13.532Z,27.07
2019-03-22T09:35:42.945Z,26.45
2019-03-22T09:38:13.417Z,27.20
2019-03-22T09:40:42.985Z,25.02
2019-03-22T09:43:12.407Z,24.87
2019-03-22T09:45:41.747Z,26.90
2019-03-22T09:48:11.128Z,27.00
2019-03-22T09:50:40.501Z,27.80
2019-03-22T09:53:10.209Z,28.62
2019-03-22T09:55:39.591Z,31.23
2019-03-22T09:58:08.973Z,30.52
2019-03-22T10:00:38.363Z,41.10
2019-03-22T10:03:07.780Z,31.85
2019-03-22T10:05:37.123Z,31.90
2019-03-22T10:08:06.586Z,31.15
2019-03-22T10:10:36.043Z,31.62
2019-03-22T10:13:05.590Z,34.33
2019-03-22T10:15:35.449Z,31.23
2019-03-22T10:18:05.043Z,30.15
2019-03-22T10:20:34.534Z,29.67
2019-03-22T10:23:03.996Z,31.30
2019-03-22T10:25:33.443Z,32.07
2019-03-22T10:28:03.121Z,31.33
2019-03-22T10:30:32.512Z,31.57
2019-03-22T10:33:01.845Z,33.02
2019-03-22T10:35:32.508Z,34.30
2019-03-22T10:38:04.773Z,31.75
2019-03-22T10:40:33.073Z,32.13
2019-03-22T10:43:02.720Z,30.17
2019-03-22T10:45:32.170Z,30.65
2019-03-22T10:48:01.601Z,31.33
2019-03-22T10:50:30.947Z,31.07
2019-03-22T10:53:00.783Z,30.20
2019-03-22T10:55:30.853Z,31.15
2019-03-22T10:58:00.337Z,29.87
2019-03-22T11:00:29.712Z,31.90
2019-03-22T11:02:59.104Z,30.92
2019-03-22T11:05:28.498Z,35.03
2019-03-22T11:07:57.883Z,31.87
2019-03-22T11:10:27.259Z,29.97
2019-03-22T11:12:56.644Z,29.25
2019-03-22T11:15:26.084Z,29.60
2019-03-22T11:17:55.451Z,29.12
2019-03-22T11:20:24.929Z,30.77
2019-03-22T11:22:54.306Z,29.87
2019-03-22T11:25:23.683Z,30.67
2019-03-22T11:27:53.058Z,29.40
2019-03-22T11:30:22.438Z,29.43
2019-03-22T11:32:51.811Z,29.12
2019-03-22T11:35:21.198Z,30.27
2019-03-22T11:37:52.008Z,31.10
2019-03-22T11:40:21.395Z,29.20
2019-03-22T11:42:51.578Z,29.18
2019-03-22T11:45:24.582Z,34.23
2019-03-22T11:47:54.095Z,32.57
2019-03-22T11:50:23.545Z,36.03
2019-03-22T11:52:53.503Z,40.00
2019-03-22T11:55:22.879Z,32.27
2019-03-22T11:57:52.258Z,32.73
2019-03-22T12:00:26.285Z,34.80
2019-03-22T12:02:55.656Z,32.98
2019-03-22T12:05:25.397Z,31.93
2019-03-22T12:07:54.972Z,32.38
2019-03-22T12:10:24.354Z,30.37
2019-03-22T12:12:53.742Z,28.85
2019-03-22T12:15:24.868Z,28.77
2019-03-22T12:17:54.262Z,26.55
2019-03-22T12:20:24.751Z,28.50
2019-03-22T12:22:54.151Z,27.98
2019-03-22T12:25:25.771Z,29.20
2019-03-22T12:27:55.128Z,29.52
2019-03-22T12:30:25.015Z,29.13
2019-03-22T12:32:54.409Z,30.90
2019-03-22T12:35:23.794Z,28.17
2019-03-22T12:37:53.246Z,30.43
2019-03-22T12:40:24.292Z,27.47
2019-03-22T12:42:53.701Z,29.10
2019-03-22T12:45:33.474Z,27.98
2019-03-22T12:48:02.858Z,28.77
2019-03-22T12:50:32.223Z,27.77
2019-03-22T12:53:01.652Z,28.17
2019-03-22T12:55:31.028Z,27.93
2019-03-22T12:58:00.400Z,29.75
2019-03-22T13:00:29.796Z,28.87
2019-03-22T13:02:59.199Z,27.90
2019-03-22T13:05:28.590Z,28.77
2019-03-22T13:07:58.027Z,29.55
2019-03-22T13:10:29.158Z,29.18
2019-03-22T13:12:58.583Z,30.77
2019-03-22T13:15:27.978Z,29.75
2019-03-22T13:17:57.359Z,31.00
2019-03-22T13:20:26.735Z,32.23
2019-03-22T13:22:56.118Z,31.48
2019-03-22T13:25:25.492Z,29.67
2019-03-22T13:27:54.876Z,29.05
2019-03-22T13:30:36.428Z,28.40
2019-03-22T13:33:06.075Z,25.92
2019-03-22T13:35:35.550Z,29.63
2019-03-22T13:38:05.088Z,31.87
2019-03-22T13:40:35.460Z,25.37
2019-03-22T13:43:04.839Z,25.68
2019-03-22T13:45:34.243Z,25.23
2019-03-22T13:48:03.743Z,23.98
2019-03-22T13:50:33.385Z,26.00
2019-03-22T13:53:03.874Z,25.68
2019-03-22T13:55:33.253Z,23.05
2019-03-22T13:58:02.635Z,24.40
2019-03-22T14:00:32.055Z,22.55
2019-03-22T14:03:03.240Z,24.80
2019-03-22T14:05:32.569Z,23.32
2019-03-22T14:08:01.921Z,25.25
2019-03-22T14:10:36.341Z,24.95
2019-03-22T14:13:07.247Z,25.70
2019-03-22T14:15:37.196Z,28.57
2019-03-22T14:18:06.947Z,25.75
2019-03-22T14:20:36.334Z,25.08
2019-03-22T14:23:05.792Z,25.48
2019-03-22T14:25:35.177Z,24.85
2019-03-22T14:28:04.631Z,23.73
2019-03-22T14:30:34.226Z,24.72
2019-03-22T14:33:12.908Z,24.43
2019-03-22T14:35:35.213Z,25.80
2019-03-22T14:38:04.702Z,23.77
2019-03-22T14:40:34.073Z,20.23
2019-03-22T14:43:04.627Z,21.57
2019-03-22T14:45:34.023Z,22.10
2019-03-22T14:48:03.394Z,20.95
2019-03-22T14:50:32.793Z,20.05
2019-03-22T14:53:02.183Z,20.70
2019-03-22T14:55:31.559Z,26.68
2019-03-22T14:58:00.955Z,20.43
2019-03-22T15:00:30.362Z,20.65
2019-03-22T15:02:59.736Z,19.70
2019-03-22T15:05:29.110Z,19.48
2019-03-22T15:07:58.496Z,19.77
2019-03-22T15:10:27.880Z,20.05
2019-03-22T15:12:57.683Z,20.50
2019-03-22T15:15:31.977Z,20.30
2019-03-22T15:18:02.997Z,20.15
2019-03-22T15:20:36.908Z,18.92
2019-03-22T15:23:10.733Z,18.98
2019-03-22T15:28:23.592Z,20.68
2019-03-22T15:31:10.823Z,19.10
2019-03-22T15:33:47.671Z,20.72
2019-03-22T15:36:18.800Z,18.85
2019-03-22T15:39:05.170Z,19.80
2019-03-22T15:41:34.659Z,19.42
2019-03-22T15:44:05.408Z,19.40
2019-03-22T15:46:34.797Z,20.70
2019-03-22T15:49:04.171Z,20.12
2019-03-22T15:51:33.550Z,20.52
2019-03-22T15:54:03.679Z,20.43
2019-03-22T15:56:33.057Z,20.20
2019-03-22T15:59:02.442Z,19.67
2019-03-22T16:01:31.841Z,19.05
2019-03-22T16:04:01.215Z,17.95
2019-03-22T16:06:30.586Z,20.10
2019-03-22T16:08:59.983Z,20.02
2019-03-22T16:11:29.370Z,21.17
2019-03-22T16:13:58.761Z,19.62
2019-03-22T16:16:28.437Z,20.02
2019-03-22T16:18:57.812Z,20.52
2019-03-22T16:21:27.206Z,20.27
2019-03-22T16:23:56.605Z,18.65
2019-03-22T16:26:25.983Z,19.65
2019-03-22T16:28:55.358Z,19.42
2019-03-22T16:31:24.764Z,19.65
2019-03-22T16:33:54.752Z,19.35
2019-03-22T16:36:24.391Z,18.92
2019-03-22T16:38:54.057Z,18.92
2019-03-22T16:41:23.432Z,20.10
2019-03-22T16:43:52.812Z,19.57
2019-03-22T16:46:22.663Z,19.27
2019-03-22T16:48:52.029Z,19.25
2019-03-22T16:51:21.402Z,20.60
2019-03-22T16:53:50.790Z,19.65
2019-03-22T16:56:20.172Z,22.77
2019-03-22T16:58:49.543Z,19.70
2019-03-22T17:01:18.950Z,21.60
2019-03-22T17:03:48.326Z,20.95
2019-03-22T17:06:17.708Z,18.62
2019-03-22T17:08:47.120Z,18.98
2019-03-22T17:11:16.743Z,24.37
2019-03-22T17:13:46.191Z,22.75
2019-03-22T17:16:15.585Z,20.50
2019-03-22T17:18:44.964Z,20.62
2019-03-22T17:21:14.914Z,20.25
2019-03-22T17:23:44.312Z,21.75
2019-03-22T17:26:13.723Z,21.42
2019-03-22T17:28:43.351Z,20.75
2019-03-22T17:31:12.749Z,20.35
2019-03-22T17:33:42.137Z,23.47
2019-03-22T17:36:11.519Z,20.70
2019-03-22T17:38:40.909Z,22.22
2019-03-22T17:41:10.279Z,23.45
2019-03-22T17:43:39.660Z,25.15
2019-03-22T17:46:09.326Z,24.07
2019-03-22T17:48:38.995Z,23.42
2019-03-22T17:51:08.382Z,23.22
2019-03-22T17:53:37.748Z,23.52
2019-03-22T17:56:07.128Z,24.37
2019-03-22T17:58:36.504Z,23.90
2019-03-22T18:01:05.966Z,24.43
2019-03-22T18:03:35.342Z,24.92
2019-03-22T18:06:04.734Z,25.32
2019-03-22T18:08:34.178Z,24.77
2019-03-22T18:11:03.558Z,24.52
2019-03-22T18:13:32.940Z,24.82
2019-03-22T18:16:02.323Z,25.15
2019-03-22T18:18:31.690Z,25.45
2019-03-22T18:21:01.072Z,26.87
2019-03-22T18:23:35.699Z,26.85
2019-03-22T18:26:01.569Z,26.23
2019-03-22T18:28:30.975Z,26.55
2019-03-22T18:31:00.660Z,26.75
2019-03-22T18:33:30.065Z,27.00
2019-03-22T18:35:59.448Z,26.75
2019-03-22T18:38:28.832Z,27.40
2019-03-22T18:40:58.459Z,25.52
2019-03-22T18:43:27.838Z,27.15
2019-03-22T18:45:58.587Z,26.97
2019-03-22T18:48:27.984Z,26.97
2019-03-22T18:50:57.577Z,24.63
2019-03-22T18:53:27.260Z,26.17
2019-03-22T18:55:56.643Z,26.68
2019-03-22T18:58:26.031Z,25.92
2019-03-22T19:00:55.430Z,27.98
2019-03-22T19:03:24.813Z,27.80
2019-03-22T19:05:54.193Z,28.05
2019-03-22T19:08:23.584Z,28.92
2019-03-22T19:10:52.978Z,28.17
2019-03-22T19:13:30.427Z,29.63
2019-03-22T19:15:53.936Z,29.27
2019-03-22T19:18:23.306Z,31.33
2019-03-22T19:20:52.694Z,31.12
2019-03-22T19:23:22.083Z,31.97
2019-03-22T19:25:51.453Z,31.70
2019-03-22T19:28:20.858Z,31.12
2019-03-22T19:30:50.249Z,30.15
2019-03-22T19:33:19.631Z,32.53
2019-03-22T19:35:49.014Z,34.00
2019-03-22T19:38:19.205Z,30.95
2019-03-22T19:40:48.594Z,30.68
2019-03-22T19:43:17.943Z,30.27
2019-03-22T19:45:47.328Z,34.73
2019-03-22T19:48:16.775Z,32.90
2019-03-22T19:50:46.158Z,33.73
2019-03-22T19:53:16.838Z,33.10
2019-03-22T19:55:46.216Z,36.58
2019-03-22T19:58:15.588Z,35.73
2019-03-22T20:00:45.017Z,33.85
2019-03-22T20:03:14.387Z,34.83
2019-03-22T20:05:43.782Z,33.48
2019-03-22T20:08:13.936Z,34.48
2019-03-22T20:10:43.313Z,33.28
2019-03-22T20:13:12.677Z,36.40
2019-03-22T20:15:42.072Z,34.78
2019-03-22T20:18:11.448Z,35.25
2019-03-22T20:20:40.834Z,34.55
2019-03-22T20:23:10.686Z,36.40
2019-03-22T20:25:40.065Z,35.63
2019-03-22T20:28:09.437Z,36.17
2019-03-22T20:30:38.842Z,37.05
2019-03-22T20:33:08.382Z,36.65
2019-03-22T20:35:37.760Z,38.30
2019-03-22T20:38:07.182Z,36.13
2019-03-22T20:40:36.554Z,37.15
2019-03-22T20:43:05.940Z,37.45
2019-03-22T20:45:35.636Z,36.17
2019-03-22T20:48:05.024Z,36.77
2019-03-22T20:50:36.110Z,35.92
2019-03-22T20:53:05.664Z,37.73
2019-03-22T20:55:35.151Z,35.10
2019-03-22T20:58:04.530Z,34.27
2019-03-22T21:00:33.926Z,36.28
2019-03-22T21:03:03.308Z,36.88
2019-03-22T21:05:32.689Z,37.33
2019-03-22T21:08:02.264Z,36.60
2019-03-22T21:10:31.638Z,36.28
2019-03-22T21:13:01.008Z,37.95
2019-03-22T21:15:30.395Z,36.77
2019-03-22T21:17:59.765Z,36.23
2019-03-22T21:20:29.159Z,34.43
2019-03-22T21:22:58.549Z,33.78
2019-03-22T21:25:27.915Z,37.63
2019-03-22T21:27:57.316Z,34.73
2019-03-22T21:30:27.006Z,39.73
2019-03-22T21:32:56.387Z,37.33
2019-03-22T21:35:25.775Z,36.73
2019-03-22T21:37:55.160Z,37.38
2019-03-22T21:40:24.793Z,36.73
2019-03-22T21:42:54.428Z,36.98
2019-03-22T21:45:23.798Z,37.13
2019-03-22T21:47:53.178Z,38.00
2019-03-22T21:50:22.559Z,37.03
2019-03-22T21:52:52.062Z,37.00
2019-03-22T21:55:21.438Z,38.15
2019-03-22T21:57:51.276Z,38.88
2019-03-22T22:00:20.731Z,39.20
2019-03-22T22:02:50.106Z,37.17
2019-03-22T22:05:19.587Z,37.87
2019-03-22T22:07:48.970Z,35.80
2019-03-22T22:10:18.354Z,38.00
2019-03-22T22:12:47.739Z,40.55
2019-03-22T22:15:17.595Z,39.83
2019-03-22T22:17:47.083Z,38.23
2019-03-22T22:22:52.633Z,38.58
2019-03-22T22:25:22.264Z,38.77
2019-03-22T22:27:51.655Z,36.53
2019-03-22T22:30:21.221Z,38.80
2019-03-22T22:32:50.604Z,41.08
2019-03-22T22:35:19.992Z,39.80
2019-03-22T22:37:49.378Z,38.28
2019-03-22T22:40:18.761Z,37.47
2019-03-22T22:42:48.132Z,38.35
2019-03-22T22:45:17.513Z,39.70
2019-03-22T22:47:46.897Z,39.70
2019-03-22T22:50:16.346Z,39.90
2019-03-22T22:52:46.326Z,39.55
2019-03-22T22:55:15.692Z,39.77
2019-03-22T22:57:45.062Z,40.40
2019-03-22T23:00:18.776Z,38.30
2019-03-22T23:02:48.235Z,39.15
2019-03-22T23:05:17.617Z,38.90
2019-03-22T23:07:47.572Z,41.05
2019-03-22T23:10:17.019Z,38.90
2019-03-22T23:12:46.399Z,40.43
2019-03-22T23:15:15.956Z,39.47
2019-03-22T23:17:45.338Z,38.92
2019-03-22T23:20:14.775Z,41.40
2019-03-22T23:22:44.449Z,40.78
2019-03-22T23:25:13.841Z,40.20
2019-03-22T23:27:43.206Z,38.28
2019-03-22T23:30:14.338Z,40.78
2019-03-22T23:32:43.710Z,40.48
2019-03-22T23:35:13.555Z,40.37
2019-03-22T23:37:42.935Z,39.83
2019-03-22T23:40:12.551Z,38.23
2019-03-22T23:42:41.932Z,40.67
2019-03-22T23:45:12.355Z,40.20
2019-03-22T23:47:41.732Z,40.20
2019-03-22T23:50:11.337Z,41.55
2019-03-22T23:52:41.028Z,41.30
2019-03-22T23:55:10.656Z,39.45
2019-03-22T23:57:40.036Z,40.50
